sensor_id;sensor_type;location;lat;lon;timestamp;P1;durP1;ratioP1;P2;durP2;ratioP2
8331;SDS011;4203;48.144;14.118;2023-07-29T00:02:03;2.08;;;1.95;;
8331;SDS011;4203;48.144;14.118;2023-07-29T00:04:31;2.63;;;1.90;;
8331;SDS011;4203;48.144;14.118;2023-07-29T00:06:58;2.55;;;1.83;;
8331;SDS011;4203;48.144;14.118;2023-07-29T00:09:25;2.58;;;2.38;;
8331;SDS011;4203;48.144;14.118;2023-07-29T00:11:53;2.22;;;2.03;;
8331;SDS011;4203;48.144;14.118;2023-07-29T00:14:21;2.25;;;2.15;;
8331;SDS011;4203;48.144;14.118;2023-07-29T00:16:48;1.67;;;1.52;;
8331;SDS011;4203;48.144;14.118;2023-07-29T00:19:15;3.55;;;2.00;;
8331;SDS011;4203;48.144;14.118;2023-07-29T00:21:42;2.22;;;2.03;;
8331;SDS011;4203;48.144;14.118;2023-07-29T00:24:09;1.80;;;1.75;;
8331;SDS011;4203;48.144;14.118;2023-07-29T00:26:36;2.15;;;2.05;;
8331;SDS011;4203;48.144;14.118;2023-07-29T00:29:05;3.25;;;2.13;;
8331;SDS011;4203;48.144;14.118;2023-07-29T00:31:32;2.40;;;2.00;;
8331;SDS011;4203;48.144;14.118;2023-07-29T00:33:59;2.20;;;2.10;;
8331;SDS011;4203;48.144;14.118;2023-07-29T00:36:26;2.05;;;1.90;;
8331;SDS011;4203;48.144;14.118;2023-07-29T00:38:54;2.40;;;2.20;;
8331;SDS011;4203;48.144;14.118;2023-07-29T00:41:22;1.92;;;1.83;;
8331;SDS011;4203;48.144;14.118;2023-07-29T00:43:49;2.22;;;2.03;;
8331;SDS011;4203;48.144;14.118;2023-07-29T00:46:18;3.28;;;2.22;;
8331;SDS011;4203;48.144;14.118;2023-07-29T00:48:46;2.70;;;1.95;;
8331;SDS011;4203;48.144;14.118;2023-07-29T00:51:13;4.10;;;2.25;;
8331;SDS011;4203;48.144;14.118;2023-07-29T00:53:40;1.90;;;1.80;;
8331;SDS011;4203;48.144;14.118;2023-07-29T00:56:08;2.33;;;2.13;;
8331;SDS011;4203;48.144;14.118;2023-07-29T00:58:35;3.47;;;2.33;;
8331;SDS011;4203;48.144;14.118;2023-07-29T01:01:02;3.58;;;2.17;;
8331;SDS011;4203;48.144;14.118;2023-07-29T01:03:31;2.58;;;2.00;;
8331;SDS011;4203;48.144;14.118;2023-07-29T01:06:01;2.17;;;2.08;;
8331;SDS011;4203;48.144;14.118;2023-07-29T01:08:37;2.00;;;1.90;;
8331;SDS011;4203;48.144;14.118;2023-07-29T01:11:14;4.90;;;2.47;;
8331;SDS011;4203;48.144;14.118;2023-07-29T01:13:53;2.05;;;1.95;;
8331;SDS011;4203;48.144;14.118;2023-07-29T01:16:30;2.88;;;2.35;;
8331;SDS011;4203;48.144;14.118;2023-07-29T01:19:04;2.85;;;2.30;;
8331;SDS011;4203;48.144;14.118;2023-07-29T01:21:34;2.47;;;2.28;;
8331;SDS011;4203;48.144;14.118;2023-07-29T01:24:04;2.70;;;2.50;;
8331;SDS011;4203;48.144;14.118;2023-07-29T01:26:31;2.45;;;2.25;;
8331;SDS011;4203;48.144;14.118;2023-07-29T01:28:59;3.85;;;2.40;;
8331;SDS011;4203;48.144;14.118;2023-07-29T01:31:27;2.75;;;2.42;;
8331;SDS011;4203;48.144;14.118;2023-07-29T01:34:00;2.88;;;2.15;;
8331;SDS011;4203;48.144;14.118;2023-07-29T01:36:34;3.00;;;2.70;;
8331;SDS011;4203;48.144;14.118;2023-07-29T01:39:07;3.83;;;2.67;;
8331;SDS011;4203;48.144;14.118;2023-07-29T01:41:36;2.72;;;2.53;;
8331;SDS011;4203;48.144;14.118;2023-07-29T01:44:04;4.30;;;2.58;;
8331;SDS011;4203;48.144;14.118;2023-07-29T01:46:33;2.72;;;2.40;;
8331;SDS011;4203;48.144;14.118;2023-07-29T01:49:00;2.47;;;2.28;;
8331;SDS011;4203;48.144;14.118;2023-07-29T01:51:27;2.60;;;2.10;;
8331;SDS011;4203;48.144;14.118;2023-07-29T01:53:54;3.15;;;2.85;;
8331;SDS011;4203;48.144;14.118;2023-07-29T01:56:23;3.92;;;2.47;;
8331;SDS011;4203;48.144;14.118;2023-07-29T01:58:50;2.38;;;2.17;;
8331;SDS011;4203;48.144;14.118;2023-07-29T02:01:17;4.20;;;2.50;;
8331;SDS011;4203;48.144;14.118;2023-07-29T02:03:44;4.28;;;2.65;;
8331;SDS011;4203;48.144;14.118;2023-07-29T02:06:11;5.53;;;2.58;;
8331;SDS011;4203;48.144;14.118;2023-07-29T02:08:39;2.83;;;2.53;;
8331;SDS011;4203;48.144;14.118;2023-07-29T02:11:06;2.38;;;2.22;;
8331;SDS011;4203;48.144;14.118;2023-07-29T02:13:35;2.97;;;2.50;;
8331;SDS011;4203;48.144;14.118;2023-07-29T02:16:02;6.75;;;2.53;;
8331;SDS011;4203;48.144;14.118;2023-07-29T02:18:29;2.42;;;2.33;;
8331;SDS011;4203;48.144;14.118;2023-07-29T02:20:56;2.45;;;2.30;;
8331;SDS011;4203;48.144;14.118;2023-07-29T02:23:24;6.40;;;2.53;;
8331;SDS011;4203;48.144;14.118;2023-07-29T02:25:51;5.20;;;2.58;;
8331;SDS011;4203;48.144;14.118;2023-07-29T02:28:18;4.10;;;2.47;;
8331;SDS011;4203;48.144;14.118;2023-07-29T02:30:47;7.93;;;2.83;;
8331;SDS011;4203;48.144;14.118;2023-07-29T02:33:40;3.05;;;2.55;;
8331;SDS011;4203;48.144;14.118;2023-07-29T02:36:07;5.82;;;2.13;;
8331;SDS011;4203;48.144;14.118;2023-07-29T02:38:34;3.88;;;2.95;;
8331;SDS011;4203;48.144;14.118;2023-07-29T02:41:02;8.18;;;3.03;;
8331;SDS011;4203;48.144;14.118;2023-07-29T02:43:29;3.92;;;2.65;;
8331;SDS011;4203;48.144;14.118;2023-07-29T02:45:57;5.10;;;2.97;;
8331;SDS011;4203;48.144;14.118;2023-07-29T02:48:25;5.30;;;2.90;;
8331;SDS011;4203;48.144;14.118;2023-07-29T02:50:53;6.75;;;2.90;;
8331;SDS011;4203;48.144;14.118;2023-07-29T02:53:21;8.05;;;2.72;;
8331;SDS011;4203;48.144;14.118;2023-07-29T02:55:49;5.70;;;2.90;;
8331;SDS011;4203;48.144;14.118;2023-07-29T02:58:16;8.77;;;2.95;;
8331;SDS011;4203;48.144;14.118;2023-07-29T03:00:43;4.72;;;2.60;;
8331;SDS011;4203;48.144;14.118;2023-07-29T03:03:12;16.05;;;3.08;;
8331;SDS011;4203;48.144;14.118;2023-07-29T03:05:39;2.92;;;2.72;;
8331;SDS011;4203;48.144;14.118;2023-07-29T03:08:06;3.50;;;2.70;;
8331;SDS011;4203;48.144;14.118;2023-07-29T03:10:34;3.40;;;3.10;;
8331;SDS011;4203;48.144;14.118;2023-07-29T03:13:02;4.10;;;3.08;;
8331;SDS011;4203;48.144;14.118;2023-07-29T03:15:29;8.10;;;3.05;;
8331;SDS011;4203;48.144;14.118;2023-07-29T03:17:59;3.50;;;2.58;;
8331;SDS011;4203;48.144;14.118;2023-07-29T03:20:28;5.95;;;2.75;;
8331;SDS011;4203;48.144;14.118;2023-07-29T03:22:55;5.15;;;2.58;;
8331;SDS011;4203;48.144;14.118;2023-07-29T03:25:22;6.15;;;2.97;;
8331;SDS011;4203;48.144;14.118;2023-07-29T03:27:49;3.47;;;2.75;;
8331;SDS011;4203;48.144;14.118;2023-07-29T03:30:19;4.18;;;2.75;;
8331;SDS011;4203;48.144;14.118;2023-07-29T03:32:46;2.58;;;2.40;;
8331;SDS011;4203;48.144;14.118;2023-07-29T03:35:14;3.67;;;2.42;;
8331;SDS011;4203;48.144;14.118;2023-07-29T03:37:43;7.30;;;2.58;;
8331;SDS011;4203;48.144;14.118;2023-07-29T03:40:11;3.58;;;2.22;;
8331;SDS011;4203;48.144;14.118;2023-07-29T03:42:38;8.48;;;2.90;;
8331;SDS011;4203;48.144;14.118;2023-07-29T03:45:05;5.50;;;2.38;;
8331;SDS011;4203;48.144;14.118;2023-07-29T03:47:33;2.35;;;2.03;;
8331;SDS011;4203;48.144;14.118;2023-07-29T03:50:00;3.50;;;2.10;;
8331;SDS011;4203;48.144;14.118;2023-07-29T03:52:28;2.60;;;1.90;;
8331;SDS011;4203;48.144;14.118;2023-07-29T03:54:57;5.93;;;2.10;;
8331;SDS011;4203;48.144;14.118;2023-07-29T03:57:24;4.88;;;2.38;;
8331;SDS011;4203;48.144;14.118;2023-07-29T03:59:51;4.28;;;2.80;;
8331;SDS011;4203;48.144;14.118;2023-07-29T04:02:19;3.08;;;2.28;;
8331;SDS011;4203;48.144;14.118;2023-07-29T04:04:46;3.83;;;3.05;;
8331;SDS011;4203;48.144;14.118;2023-07-29T04:07:13;4.60;;;2.33;;
8331;SDS011;4203;48.144;14.118;2023-07-29T04:09:41;3.97;;;3.03;;
8331;SDS011;4203;48.144;14.118;2023-07-29T04:12:10;3.03;;;2.53;;
8331;SDS011;4203;48.144;14.118;2023-07-29T04:14:37;4.68;;;2.72;;
8331;SDS011;4203;48.144;14.118;2023-07-29T04:17:05;6.82;;;2.60;;
8331;SDS011;4203;48.144;14.118;2023-07-29T04:19:32;3.38;;;2.70;;
8331;SDS011;4203;48.144;14.118;2023-07-29T04:21:59;2.90;;;2.70;;
8331;SDS011;4203;48.144;14.118;2023-07-29T04:24:26;5.43;;;2.80;;
8331;SDS011;4203;48.144;14.118;2023-07-29T04:26:54;3.13;;;2.92;;
8331;SDS011;4203;48.144;14.118;2023-07-29T04:29:23;4.07;;;2.67;;
8331;SDS011;4203;48.144;14.118;2023-07-29T04:31:50;3.03;;;2.72;;
8331;SDS011;4203;48.144;14.118;2023-07-29T04:34:18;3.75;;;2.95;;
8331;SDS011;4203;48.144;14.118;2023-07-29T04:36:45;3.05;;;2.40;;
8331;SDS011;4203;48.144;14.118;2023-07-29T04:39:13;2.85;;;2.47;;
8331;SDS011;4203;48.144;14.118;2023-07-29T04:41:40;2.72;;;2.53;;
8331;SDS011;4203;48.144;14.118;2023-07-29T04:44:08;2.58;;;2.38;;
8331;SDS011;4203;48.144;14.118;2023-07-29T04:46:36;2.75;;;2.25;;
8331;SDS011;4203;48.144;14.118;2023-07-29T04:49:03;2.22;;;2.13;;
8331;SDS011;4203;48.144;14.118;2023-07-29T04:51:31;2.42;;;2.20;;
8331;SDS011;4203;48.144;14.118;2023-07-29T04:53:58;6.32;;;3.00;;
8331;SDS011;4203;48.144;14.118;2023-07-29T04:56:25;5.70;;;2.85;;
8331;SDS011;4203;48.144;14.118;2023-07-29T04:58:52;6.65;;;2.75;;
8331;SDS011;4203;48.144;14.118;2023-07-29T05:01:20;4.72;;;2.58;;
8331;SDS011;4203;48.144;14.118;2023-07-29T05:03:48;3.72;;;2.85;;
8331;SDS011;4203;48.144;14.118;2023-07-29T05:06:15;3.22;;;2.92;;
8331;SDS011;4203;48.144;14.118;2023-07-29T05:08:43;5.53;;;2.80;;
8331;SDS011;4203;48.144;14.118;2023-07-29T05:11:10;3.97;;;2.92;;
8331;SDS011;4203;48.144;14.118;2023-07-29T05:13:37;3.25;;;2.72;;
8331;SDS011;4203;48.144;14.118;2023-07-29T05:16:04;6.35;;;2.95;;
8331;SDS011;4203;48.144;14.118;2023-07-29T05:18:31;2.83;;;2.63;;
8331;SDS011;4203;48.144;14.118;2023-07-29T05:21:00;3.25;;;2.95;;
8331;SDS011;4203;48.144;14.118;2023-07-29T05:23:27;2.95;;;2.70;;
8331;SDS011;4203;48.144;14.118;2023-07-29T05:25:55;5.93;;;2.53;;
8331;SDS011;4203;48.144;14.118;2023-07-29T05:28:22;2.80;;;2.35;;
8331;SDS011;4203;48.144;14.118;2023-07-29T05:30:49;3.33;;;2.17;;
8331;SDS011;4203;48.144;14.118;2023-07-29T05:33:16;2.45;;;2.15;;
8331;SDS011;4203;48.144;14.118;2023-07-29T05:35:43;2.88;;;2.33;;
8331;SDS011;4203;48.144;14.118;2023-07-29T05:38:13;2.50;;;2.30;;
8331;SDS011;4203;48.144;14.118;2023-07-29T05:40:41;4.00;;;2.58;;
8331;SDS011;4203;48.144;14.118;2023-07-29T05:43:08;2.72;;;2.20;;
8331;SDS011;4203;48.144;14.118;2023-07-29T05:45:35;2.13;;;1.92;;
8331;SDS011;4203;48.144;14.118;2023-07-29T05:48:03;2.80;;;2.20;;
8331;SDS011;4203;48.144;14.118;2023-07-29T05:50:30;2.10;;;1.98;;
8331;SDS011;4203;48.144;14.118;2023-07-29T05:52:57;2.78;;;2.10;;
8331;SDS011;4203;48.144;14.118;2023-07-29T05:55:26;4.70;;;2.35;;
8331;SDS011;4203;48.144;14.118;2023-07-29T05:57:53;2.90;;;2.60;;
8331;SDS011;4203;48.144;14.118;2023-07-29T06:00:20;2.53;;;2.30;;
8331;SDS011;4203;48.144;14.118;2023-07-29T06:02:47;4.35;;;2.22;;
8331;SDS011;4203;48.144;14.118;2023-07-29T06:05:15;2.42;;;2.22;;
8331;SDS011;4203;48.144;14.118;2023-07-29T06:07:42;2.47;;;2.28;;
8331;SDS011;4203;48.144;14.118;2023-07-29T06:10:10;2.35;;;2.15;;
8331;SDS011;4203;48.144;14.118;2023-07-29T06:12:40;1.85;;;1.75;;
8331;SDS011;4203;48.144;14.118;2023-07-29T06:15:07;3.42;;;2.28;;
8331;SDS011;4203;48.144;14.118;2023-07-29T06:17:35;1.90;;;1.80;;
8331;SDS011;4203;48.144;14.118;2023-07-29T06:20:02;2.55;;;2.38;;
8331;SDS011;4203;48.144;14.118;2023-07-29T06:22:31;1.80;;;1.70;;
8331;SDS011;4203;48.144;14.118;2023-07-29T06:24:58;3.65;;;2.05;;
8331;SDS011;4203;48.144;14.118;2023-07-29T06:27:25;1.80;;;1.70;;
8331;SDS011;4203;48.144;14.118;2023-07-29T06:29:53;2.22;;;2.13;;
8331;SDS011;4203;48.144;14.118;2023-07-29T06:32:21;2.13;;;1.85;;
8331;SDS011;4203;48.144;14.118;2023-07-29T06:34:48;2.03;;;1.77;;
8331;SDS011;4203;48.144;14.118;2023-07-29T06:37:17;2.00;;;1.90;;
8331;SDS011;4203;48.144;14.118;2023-07-29T06:39:44;2.00;;;1.90;;
8331;SDS011;4203;48.144;14.118;2023-07-29T06:42:11;2.25;;;2.05;;
8331;SDS011;4203;48.144;14.118;2023-07-29T06:44:39;2.65;;;1.80;;
8331;SDS011;4203;48.144;14.118;2023-07-29T06:47:08;3.00;;;2.05;;
8331;SDS011;4203;48.144;14.118;2023-07-29T06:49:35;1.90;;;1.80;;
8331;SDS011;4203;48.144;14.118;2023-07-29T06:52:02;1.73;;;1.63;;
8331;SDS011;4203;48.144;14.118;2023-07-29T06:54:30;1.60;;;1.50;;
8331;SDS011;4203;48.144;14.118;2023-07-29T06:56:57;1.65;;;1.55;;
8331;SDS011;4203;48.144;14.118;2023-07-29T06:59:25;1.60;;;1.50;;
8331;SDS011;4203;48.144;14.118;2023-07-29T07:01:52;1.70;;;1.33;;
8331;SDS011;4203;48.144;14.118;2023-07-29T07:04:20;1.63;;;1.52;;
8331;SDS011;4203;48.144;14.118;2023-07-29T07:06:47;1.80;;;1.70;;
8331;SDS011;4203;48.144;14.118;2023-07-29T07:09:15;1.60;;;1.50;;
8331;SDS011;4203;48.144;14.118;2023-07-29T07:11:42;2.08;;;1.70;;
8331;SDS011;4203;48.144;14.118;2023-07-29T07:14:09;1.55;;;1.55;;
8331;SDS011;4203;48.144;14.118;2023-07-29T07:16:36;2.13;;;1.40;;
8331;SDS011;4203;48.144;14.118;2023-07-29T07:19:04;2.80;;;1.75;;
8331;SDS011;4203;48.144;14.118;2023-07-29T07:21:33;1.80;;;1.70;;
8331;SDS011;4203;48.144;14.118;2023-07-29T07:24:00;2.78;;;2.08;;
8331;SDS011;4203;48.144;14.118;2023-07-29T07:26:27;1.90;;;1.80;;
8331;SDS011;4203;48.144;14.118;2023-07-29T07:28:54;1.70;;;1.60;;
8331;SDS011;4203;48.144;14.118;2023-07-29T07:31:21;2.72;;;2.05;;
8331;SDS011;4203;48.144;14.118;2023-07-29T07:33:49;1.92;;;1.83;;
8331;SDS011;4203;48.144;14.118;2023-07-29T07:36:16;1.77;;;1.67;;
8331;SDS011;4203;48.144;14.118;2023-07-29T07:38:44;1.85;;;1.75;;
8331;SDS011;4203;48.144;14.118;2023-07-29T07:41:12;2.00;;;1.90;;
8331;SDS011;4203;48.144;14.118;2023-07-29T07:43:39;2.03;;;1.90;;
8331;SDS011;4203;48.144;14.118;2023-07-29T07:46:06;1.70;;;1.70;;
8331;SDS011;4203;48.144;14.118;2023-07-29T07:48:33;2.20;;;1.50;;
8331;SDS011;4203;48.144;14.118;2023-07-29T07:51:04;3.38;;;1.70;;
8331;SDS011;4203;48.144;14.118;2023-07-29T07:53:36;1.85;;;1.75;;
8331;SDS011;4203;48.144;14.118;2023-07-29T07:56:05;1.95;;;1.50;;
8331;SDS011;4203;48.144;14.118;2023-07-29T07:58:32;1.80;;;1.80;;
8331;SDS011;4203;48.144;14.118;2023-07-29T08:01:03;2.17;;;1.55;;
8331;SDS011;4203;48.144;14.118;2023-07-29T08:03:31;2.17;;;1.98;;
8331;SDS011;4203;48.144;14.118;2023-07-29T08:05:58;1.85;;;1.70;;
8331;SDS011;4203;48.144;14.118;2023-07-29T08:08:26;1.98;;;1.88;;
8331;SDS011;4203;48.144;14.118;2023-07-29T08:10:53;1.50;;;1.50;;
8331;SDS011;4203;48.144;14.118;2023-07-29T08:13:24;2.60;;;1.92;;
8331;SDS011;4203;48.144;14.118;2023-07-29T08:15:52;1.40;;;1.40;;
8331;SDS011;4203;48.144;14.118;2023-07-29T08:18:19;1.77;;;1.67;;
8331;SDS011;4203;48.144;14.118;2023-07-29T08:20:53;1.73;;;1.63;;
8331;SDS011;4203;48.144;14.118;2023-07-29T08:23:23;1.85;;;1.75;;
8331;SDS011;4203;48.144;14.118;2023-07-29T08:25:52;1.70;;;1.60;;
8331;SDS011;4203;48.144;14.118;2023-07-29T08:28:21;1.80;;;1.70;;
8331;SDS011;4203;48.144;14.118;2023-07-29T08:30:49;1.75;;;1.65;;
8331;SDS011;4203;48.144;14.118;2023-07-29T08:33:17;3.60;;;2.25;;
8331;SDS011;4203;48.144;14.118;2023-07-29T08:35:44;3.13;;;1.40;;
8331;SDS011;4203;48.144;14.118;2023-07-29T08:38:11;1.92;;;1.83;;
8331;SDS011;4203;48.144;14.118;2023-07-29T08:40:42;1.90;;;1.80;;
8331;SDS011;4203;48.144;14.118;2023-07-29T08:43:16;5.00;;;2.10;;
8331;SDS011;4203;48.144;14.118;2023-07-29T08:45:46;2.10;;;1.85;;
8331;SDS011;4203;48.144;14.118;2023-07-29T08:48:15;1.88;;;1.77;;
8331;SDS011;4203;48.144;14.118;2023-07-29T08:50:47;1.80;;;1.70;;
8331;SDS011;4203;48.144;14.118;2023-07-29T08:53:16;2.05;;;1.75;;
8331;SDS011;4203;48.144;14.118;2023-07-29T08:55:44;1.75;;;1.58;;
8331;SDS011;4203;48.144;14.118;2023-07-29T08:58:11;1.85;;;1.35;;
8331;SDS011;4203;48.144;14.118;2023-07-29T09:00:38;1.48;;;1.38;;
8331;SDS011;4203;48.144;14.118;2023-07-29T09:03:06;1.38;;;1.38;;
8331;SDS011;4203;48.144;14.118;2023-07-29T09:05:35;1.60;;;1.50;;
8331;SDS011;4203;48.144;14.118;2023-07-29T09:08:02;1.45;;;1.45;;
8331;SDS011;4203;48.144;14.118;2023-07-29T09:10:30;2.67;;;1.50;;
8331;SDS011;4203;48.144;14.118;2023-07-29T09:13:02;1.50;;;1.40;;
8331;SDS011;4203;48.144;14.118;2023-07-29T09:15:30;1.58;;;1.48;;
8331;SDS011;4203;48.144;14.118;2023-07-29T09:17:58;1.40;;;1.30;;
8331;SDS011;4203;48.144;14.118;2023-07-29T09:20:25;1.27;;;1.27;;
8331;SDS011;4203;48.144;14.118;2023-07-29T09:22:55;1.50;;;1.40;;
8331;SDS011;4203;48.144;14.118;2023-07-29T09:25:25;1.67;;;1.58;;
8331;SDS011;4203;48.144;14.118;2023-07-29T09:27:53;1.23;;;1.23;;
8331;SDS011;4203;48.144;14.118;2023-07-29T09:30:26;2.03;;;1.35;;
8331;SDS011;4203;48.144;14.118;2023-07-29T09:32:54;1.70;;;1.60;;
8331;SDS011;4203;48.144;14.118;2023-07-29T09:35:22;1.23;;;1.23;;
8331;SDS011;4203;48.144;14.118;2023-07-29T09:37:50;1.50;;;1.40;;
8331;SDS011;4203;48.144;14.118;2023-07-29T09:40:19;1.67;;;1.58;;
8331;SDS011;4203;48.144;14.118;2023-07-29T09:42:49;1.63;;;1.60;;
8331;SDS011;4203;48.144;14.118;2023-07-29T09:45:21;1.52;;;1.40;;
8331;SDS011;4203;48.144;14.118;2023-07-29T09:47:48;1.42;;;1.33;;
8331;SDS011;4203;48.144;14.118;2023-07-29T09:50:16;1.40;;;1.40;;
8331;SDS011;4203;48.144;14.118;2023-07-29T09:52:44;2.00;;;1.48;;
8331;SDS011;4203;48.144;14.118;2023-07-29T09:55:13;1.40;;;1.40;;
8331;SDS011;4203;48.144;14.118;2023-07-29T09:57:45;1.60;;;1.50;;
8331;SDS011;4203;48.144;14.118;2023-07-29T10:00:13;1.80;;;1.70;;
8331;SDS011;4203;48.144;14.118;2023-07-29T10:02:41;2.17;;;1.70;;
8331;SDS011;4203;48.144;14.118;2023-07-29T10:05:09;1.50;;;1.50;;
8331;SDS011;4203;48.144;14.118;2023-07-29T10:07:37;1.65;;;1.55;;
8331;SDS011;4203;48.144;14.118;2023-07-29T10:10:06;1.70;;;1.60;;
8331;SDS011;4203;48.144;14.118;2023-07-29T10:12:35;2.05;;;1.52;;
8331;SDS011;4203;48.144;14.118;2023-07-29T10:15:03;2.00;;;1.90;;
8331;SDS011;4203;48.144;14.118;2023-07-29T10:17:33;1.88;;;1.77;;
8331;SDS011;4203;48.144;14.118;2023-07-29T10:20:02;2.17;;;2.08;;
8331;SDS011;4203;48.144;14.118;2023-07-29T10:22:33;1.55;;;1.50;;
8331;SDS011;4203;48.144;14.118;2023-07-29T10:25:03;2.38;;;1.48;;
8331;SDS011;4203;48.144;14.118;2023-07-29T10:27:41;1.73;;;1.60;;
8331;SDS011;4203;48.144;14.118;2023-07-29T10:30:10;1.90;;;1.80;;
8331;SDS011;4203;48.144;14.118;2023-07-29T10:32:39;2.25;;;2.00;;
8331;SDS011;4203;48.144;14.118;2023-07-29T10:35:09;1.92;;;1.80;;
8331;SDS011;4203;48.144;14.118;2023-07-29T10:37:37;1.85;;;1.75;;
8331;SDS011;4203;48.144;14.118;2023-07-29T10:40:07;1.98;;;1.88;;
8331;SDS011;4203;48.144;14.118;2023-07-29T10:42:37;1.83;;;1.73;;
8331;SDS011;4203;48.144;14.118;2023-07-29T10:45:20;3.35;;;2.10;;
8331;SDS011;4203;48.144;14.118;2023-07-29T10:47:47;2.13;;;1.92;;
8331;SDS011;4203;48.144;14.118;2023-07-29T10:50:19;2.38;;;2.00;;
8331;SDS011;4203;48.144;14.118;2023-07-29T10:52:50;3.25;;;2.20;;
8331;SDS011;4203;48.144;14.118;2023-07-29T10:55:28;2.00;;;1.90;;
8331;SDS011;4203;48.144;14.118;2023-07-29T10:58:18;4.18;;;2.17;;
8331;SDS011;4203;48.144;14.118;2023-07-29T11:00:45;1.95;;;1.85;;
8331;SDS011;4203;48.144;14.118;2023-07-29T11:03:13;2.10;;;2.00;;
8331;SDS011;4203;48.144;14.118;2023-07-29T11:05:42;2.00;;;1.90;;
8331;SDS011;4203;48.144;14.118;2023-07-29T11:08:16;1.73;;;1.70;;
8331;SDS011;4203;48.144;14.118;2023-07-29T11:10:57;2.22;;;1.80;;
8331;SDS011;4203;48.144;14.118;2023-07-29T11:13:28;3.55;;;1.85;;
8331;SDS011;4203;48.144;14.118;2023-07-29T11:15:58;1.95;;;1.85;;
8331;SDS011;4203;48.144;14.118;2023-07-29T11:18:26;1.60;;;1.60;;
8331;SDS011;4203;48.144;14.118;2023-07-29T11:20:56;1.55;;;1.55;;
8331;SDS011;4203;48.144;14.118;2023-07-29T11:23:28;2.00;;;1.90;;
8331;SDS011;4203;48.144;14.118;2023-07-29T11:25:57;2.28;;;1.70;;
8331;SDS011;4203;48.144;14.118;2023-07-29T11:28:25;1.95;;;1.85;;
8331;SDS011;4203;48.144;14.118;2023-07-29T11:30:54;1.77;;;1.60;;
8331;SDS011;4203;48.144;14.118;2023-07-29T11:33:23;2.03;;;1.85;;
8331;SDS011;4203;48.144;14.118;2023-07-29T11:35:53;5.43;;;2.03;;
8331;SDS011;4203;48.144;14.118;2023-07-29T11:38:20;1.95;;;1.85;;
8331;SDS011;4203;48.144;14.118;2023-07-29T11:40:55;1.40;;;1.40;;
8331;SDS011;4203;48.144;14.118;2023-07-29T11:43:24;1.77;;;1.52;;
8331;SDS011;4203;48.144;14.118;2023-07-29T11:45:51;1.95;;;1.60;;
8331;SDS011;4203;48.144;14.118;2023-07-29T11:48:27;1.85;;;1.75;;
8331;SDS011;4203;48.144;14.118;2023-07-29T11:50:55;1.85;;;1.80;;
8331;SDS011;4203;48.144;14.118;2023-07-29T11:53:25;1.92;;;1.83;;
8331;SDS011;4203;48.144;14.118;2023-07-29T11:55:54;2.47;;;1.73;;
8331;SDS011;4203;48.144;14.118;2023-07-29T11:58:21;1.75;;;1.40;;
8331;SDS011;4203;48.144;14.118;2023-07-29T12:00:48;1.70;;;1.70;;
8331;SDS011;4203;48.144;14.118;2023-07-29T12:03:16;2.05;;;1.95;;
8331;SDS011;4203;48.144;14.118;2023-07-29T12:05:45;2.55;;;2.03;;
8331;SDS011;4203;48.144;14.118;2023-07-29T12:08:12;3.35;;;2.10;;
8331;SDS011;4203;48.144;14.118;2023-07-29T12:10:40;2.03;;;1.92;;
8331;SDS011;4203;48.144;14.118;2023-07-29T12:13:08;1.88;;;1.77;;
8331;SDS011;4203;48.144;14.118;2023-07-29T12:15:37;2.45;;;2.25;;
8331;SDS011;4203;48.144;14.118;2023-07-29T12:18:05;2.17;;;2.00;;
8331;SDS011;4203;48.144;14.118;2023-07-29T12:20:32;2.10;;;2.00;;
8331;SDS011;4203;48.144;14.118;2023-07-29T12:23:01;1.95;;;1.85;;
8331;SDS011;4203;48.144;14.118;2023-07-29T12:25:31;1.90;;;1.80;;
8331;SDS011;4203;48.144;14.118;2023-07-29T12:28:01;1.73;;;1.63;;
8331;SDS011;4203;48.144;14.118;2023-07-29T12:30:29;2.30;;;2.10;;
8331;SDS011;4203;48.144;14.118;2023-07-29T12:32:57;1.73;;;1.65;;
8331;SDS011;4203;48.144;14.118;2023-07-29T12:35:24;1.60;;;1.60;;
8331;SDS011;4203;48.144;14.118;2023-07-29T12:37:59;2.30;;;2.15;;
8331;SDS011;4203;48.144;14.118;2023-07-29T12:40:28;2.20;;;2.10;;
8331;SDS011;4203;48.144;14.118;2023-07-29T12:42:55;2.00;;;1.90;;
8331;SDS011;4203;48.144;14.118;2023-07-29T12:45:23;1.95;;;1.83;;
8331;SDS011;4203;48.144;14.118;2023-07-29T12:47:52;2.15;;;2.03;;
8331;SDS011;4203;48.144;14.118;2023-07-29T12:50:19;2.15;;;2.05;;
8331;SDS011;4203;48.144;14.118;2023-07-29T12:52:46;2.05;;;1.95;;
8331;SDS011;4203;48.144;14.118;2023-07-29T12:55:15;1.92;;;1.83;;
8331;SDS011;4203;48.144;14.118;2023-07-29T12:57:42;1.83;;;1.52;;
8331;SDS011;4203;48.144;14.118;2023-07-29T13:00:10;1.88;;;1.77;;
8331;SDS011;4203;48.144;14.118;2023-07-29T13:02:38;1.90;;;1.80;;
8331;SDS011;4203;48.144;14.118;2023-07-29T13:05:06;2.30;;;2.20;;
8331;SDS011;4203;48.144;14.118;2023-07-29T13:07:35;2.20;;;2.10;;
8331;SDS011;4203;48.144;14.118;2023-07-29T13:10:03;2.05;;;1.95;;
8331;SDS011;4203;48.144;14.118;2023-07-29T13:12:32;2.17;;;2.05;;
8331;SDS011;4203;48.144;14.118;2023-07-29T13:14:59;2.20;;;2.10;;
8331;SDS011;4203;48.144;14.118;2023-07-29T13:17:26;2.10;;;2.00;;
8331;SDS011;4203;48.144;14.118;2023-07-29T13:19:53;2.15;;;2.05;;
8331;SDS011;4203;48.144;14.118;2023-07-29T13:22:21;2.22;;;2.13;;
8331;SDS011;4203;48.144;14.118;2023-07-29T13:24:48;1.92;;;1.83;;
8331;SDS011;4203;48.144;14.118;2023-07-29T13:27:15;2.17;;;2.08;;
8331;SDS011;4203;48.144;14.118;2023-07-29T13:29:44;3.05;;;2.38;;
8331;SDS011;4203;48.144;14.118;2023-07-29T13:32:12;2.30;;;2.20;;
8331;SDS011;4203;48.144;14.118;2023-07-29T13:34:39;5.68;;;2.50;;
8331;SDS011;4203;48.144;14.118;2023-07-29T13:37:06;3.90;;;1.70;;
8331;SDS011;4203;48.144;14.118;2023-07-29T13:39:34;5.97;;;1.60;;
8331;SDS011;4203;48.144;14.118;2023-07-29T13:42:19;7.53;;;2.00;;
8331;SDS011;4203;48.144;14.118;2023-07-29T13:45:04;3.17;;;1.50;;
8331;SDS011;4203;48.144;14.118;2023-07-29T13:47:31;4.80;;;1.20;;
8331;SDS011;4203;48.144;14.118;2023-07-29T13:49:59;3.88;;;1.45;;
8331;SDS011;4203;48.144;14.118;2023-07-29T13:52:26;1.38;;;1.27;;
8331;SDS011;4203;48.144;14.118;2023-07-29T13:54:53;5.18;;;1.42;;
8331;SDS011;4203;48.144;14.118;2023-07-29T13:57:20;3.80;;;1.70;;
8331;SDS011;4203;48.144;14.118;2023-07-29T13:59:48;1.98;;;1.88;;
8331;SDS011;4203;48.144;14.118;2023-07-29T14:02:16;4.88;;;1.70;;
8331;SDS011;4203;48.144;14.118;2023-07-29T14:04:43;3.40;;;1.40;;
8331;SDS011;4203;48.144;14.118;2023-07-29T14:07:10;4.20;;;1.80;;
8331;SDS011;4203;48.144;14.118;2023-07-29T14:09:38;2.42;;;1.70;;
8331;SDS011;4203;48.144;14.118;2023-07-29T14:12:06;2.70;;;1.88;;
8331;SDS011;4203;48.144;14.118;2023-07-29T14:14:37;3.78;;;1.65;;
8331;SDS011;4203;48.144;14.118;2023-07-29T14:17:04;2.38;;;1.20;;
8331;SDS011;4203;48.144;14.118;2023-07-29T14:19:33;1.55;;;1.30;;
8331;SDS011;4203;48.144;14.118;2023-07-29T14:22:01;2.30;;;1.23;;
8331;SDS011;4203;48.144;14.118;2023-07-29T14:24:28;1.35;;;1.25;;
8331;SDS011;4203;48.144;14.118;2023-07-29T14:26:55;3.42;;;1.60;;
8331;SDS011;4203;48.144;14.118;2023-07-29T14:29:22;1.73;;;1.45;;
8331;SDS011;4203;48.144;14.118;2023-07-29T14:31:49;3.10;;;1.42;;
8331;SDS011;4203;48.144;14.118;2023-07-29T14:34:16;1.60;;;1.10;;
8331;SDS011;4203;48.144;14.118;2023-07-29T14:36:45;2.10;;;1.10;;
8331;SDS011;4203;48.144;14.118;2023-07-29T14:39:12;2.05;;;1.60;;
8331;SDS011;4203;48.144;14.118;2023-07-29T14:41:39;2.33;;;1.60;;
8331;SDS011;4203;48.144;14.118;2023-07-29T14:44:06;1.30;;;1.30;;
8331;SDS011;4203;48.144;14.118;2023-07-29T14:46:33;1.95;;;1.25;;
8331;SDS011;4203;48.144;14.118;2023-07-29T14:49:01;1.08;;;1.02;;
8331;SDS011;4203;48.144;14.118;2023-07-29T14:51:28;1.20;;;1.10;;
8331;SDS011;4203;48.144;14.118;2023-07-29T14:53:56;2.08;;;1.35;;
8331;SDS011;4203;48.144;14.118;2023-07-29T14:56:23;1.40;;;1.30;;
8331;SDS011;4203;48.144;14.118;2023-07-29T14:58:50;1.67;;;1.27;;
8331;SDS011;4203;48.144;14.118;2023-07-29T15:01:18;2.38;;;1.38;;
8331;SDS011;4203;48.144;14.118;2023-07-29T15:03:45;1.15;;;1.00;;
8331;SDS011;4203;48.144;14.118;2023-07-29T15:06:12;2.92;;;1.48;;
8331;SDS011;4203;48.144;14.118;2023-07-29T15:08:39;1.60;;;1.27;;